Time;durP1;ratioP1;P1;durP2;ratioP2;P2;SDS_P1;SDS_P2;PMS_P1;PMS_P2;Temp;Humidity;BMP_temperature;BMP_pressure;BME280_temperature;BME280_humidity;BME280_pressure;Samples;Min_cycle;Max_cycle;Signal;HPM_P1;HPM_P2
2024/02/18 00:01:39;;;;;;;8.47;6.67;;;21.30;56.40;;;;;;5052619;28;20479;-71
2024/02/18 00:04:05;;;;;;;9.57;6.50;;;21.20;56.30;;;;;;5053075;28;20911;-71
2024/02/18 00:06:30;;;;;;;9.10;6.97;;;21.30;56.40;;;;;;5052571;28;20409;-71
2024/02/18 00:08:56;;;;;;;9.30;6.63;;;21.20;56.30;;;;;;5052582;28;20677;-72
2024/02/18 00:11:21;;;;;;;10.97;7.33;;;21.20;56.30;;;;;;5052523;28;20272;-71
2024/02/18 00:13:47;;;;;;;7.63;6.80;;;21.20;56.30;;;;;;5054572;28;20967;-71
2024/02/18 00:16:13;;;;;;;11.40;7.13;;;21.20;56.30;;;;;;5057265;28;20167;-71
2024/02/18 00:18:38;;;;;;;11.27;7.60;;;21.20;56.30;;;;;;5057365;28;20641;-71
2024/02/18 00:21:04;;;;;;;11.60;7.20;;;21.20;56.30;;;;;;5057275;28;20261;-71
2024/02/18 00:23:30;;;;;;;9.67;6.67;;;21.20;56.30;;;;;;5057175;28;20206;-71
2024/02/18 00:25:56;;;;;;;9.17;6.33;;;21.20;56.30;;;;;;5057698;28;20181;-72
2024/02/18 00:28:22;;;;;;;10.97;7.60;;;21.20;56.30;;;;;;5057177;28;20453;-71
2024/02/18 00:30:49;;;;;;;9.53;7.00;;;21.20;56.30;;;;;;5057209;28;20182;-71
2024/02/18 00:33:20;;;;;;;8.87;6.60;;;21.20;56.30;;;;;;5057013;28;20437;-71
2024/02/18 00:35:46;;;;;;;9.27;7.00;;;21.20;56.30;;;;;;5057449;28;20755;-71
2024/02/18 00:38:12;;;;;;;11.07;7.57;;;21.20;56.30;;;;;;5057045;28;20413;-72
2024/02/18 00:40:37;;;;;;;7.43;6.23;;;21.20;56.30;;;;;;5056935;28;20701;-71
2024/02/18 00:43:03;;;;;;;9.87;7.10;;;21.20;56.30;;;;;;5056959;28;20196;-70
2024/02/18 00:45:28;;;;;;;10.23;6.77;;;21.20;56.30;;;;;;5056943;28;20175;-71
2024/02/18 00:47:54;;;;;;;10.47;6.73;;;21.20;56.30;;;;;;5056687;28;21042;-72
2024/02/18 00:50:20;;;;;;;6.57;5.77;;;21.20;56.30;;;;;;5057199;28;20171;-72
2024/02/18 00:52:45;;;;;;;9.97;6.40;;;21.20;56.30;;;;;;5056833;28;20217;-72
2024/02/18 00:55:11;;;;;;;9.30;7.13;;;21.20;56.30;;;;;;5056959;28;20285;-72
2024/02/18 00:57:36;;;;;;;8.20;5.63;;;21.20;56.30;;;;;;5056587;28;20541;-71
2024/02/18 01:00:04;;;;;;;11.80;6.93;;;21.20;56.30;;;;;;5056553;28;20262;-71
2024/02/18 01:02:30;;;;;;;10.03;6.00;;;21.20;56.30;;;;;;5056414;28;20187;-72
2024/02/18 01:04:59;;;;;;;9.57;7.87;;;21.20;56.30;;;;;;5056516;28;20423;-70
2024/02/18 01:07:25;;;;;;;9.60;5.60;;;21.20;56.30;;;;;;5056498;28;20206;-71
2024/02/18 01:09:51;;;;;;;9.00;7.00;;;21.20;56.30;;;;;;5056348;28;20479;-72
2024/02/18 01:12:17;;;;;;;7.20;6.00;;;21.20;56.90;;;;;;5056200;28;20418;-71
2024/02/18 01:14:43;;;;;;;10.73;6.57;;;21.20;56.30;;;;;;5054890;28;20413;-71
2024/02/18 01:17:09;;;;;;;7.93;5.83;;;21.20;56.30;;;;;;5056231;28;20547;-72
2024/02/18 01:19:36;;;;;;;11.37;6.80;;;21.20;56.30;;;;;;5055846;28;20501;-71
2024/02/18 01:22:02;;;;;;;9.10;6.57;;;21.20;56.30;;;;;;5056098;28;20199;-72
2024/02/18 01:24:27;;;;;;;8.70;6.10;;;21.10;56.30;;;;;;5055628;28;20547;-72
2024/02/18 01:26:53;;;;;;;8.10;5.63;;;21.10;56.30;;;;;;5055873;28;20410;-72
2024/02/18 01:29:18;;;;;;;7.70;6.13;;;21.20;56.40;;;;;;5056675;28;20332;-72
2024/02/18 01:31:44;;;;;;;8.60;6.00;;;21.10;56.30;;;;;;5054428;28;20195;-72
2024/02/18 01:34:09;;;;;;;8.30;6.60;;;21.10;56.30;;;;;;5055902;28;20642;-72
2024/02/18 01:36:35;;;;;;;8.37;6.50;;;21.10;56.30;;;;;;5056605;28;20189;-72
2024/02/18 01:39:01;;;;;;;11.87;6.83;;;21.10;56.30;;;;;;5055926;28;20183;-72
2024/02/18 01:41:27;;;;;;;8.70;6.70;;;21.10;56.30;;;;;;5055978;28;20565;-71
2024/02/18 01:43:53;;;;;;;9.00;7.03;;;21.10;56.30;;;;;;5055846;28;20213;-72
2024/02/18 01:46:19;;;;;;;9.57;6.67;;;21.10;56.30;;;;;;5055806;28;20175;-71
2024/02/18 01:48:45;;;;;;;7.67;6.20;;;21.10;56.30;;;;;;5055480;28;20526;-71
2024/02/18 01:51:12;;;;;;;7.40;5.97;;;21.10;56.30;;;;;;5055400;28;20406;-72
2024/02/18 01:53:38;;;;;;;8.00;6.30;;;21.10;56.30;;;;;;5055916;28;20409;-71
2024/02/18 01:56:05;;;;;;;7.23;5.47;;;21.10;56.40;;;;;;5055647;28;20413;-72
2024/02/18 01:58:32;;;;;;;8.07;5.60;;;21.10;56.30;;;;;;5037653;28;20426;-72
2024/02/18 02:00:58;;;;;;;7.63;5.60;;;21.10;56.30;;;;;;5055569;28;20409;-72
2024/02/18 02:03:24;;;;;;;7.63;6.20;;;21.10;56.30;;;;;;5055575;28;20426;-72
2024/02/18 02:05:52;;;;;;;8.33;5.97;;;21.10;56.30;;;;;;5055727;28;20466;-72
2024/02/18 02:08:18;;;;;;;7.20;5.80;;;21.10;56.30;;;;;;5055237;28;20461;-72
2024/02/18 02:10:43;;;;;;;7.07;5.37;;;21.20;56.50;;;;;;5055661;28;20806;-72
2024/02/18 02:13:09;;;;;;;9.57;6.63;;;21.10;56.30;;;;;;5055470;28;20364;-70
2024/02/18 02:15:35;;;;;;;8.80;6.30;;;21.10;56.30;;;;;;5055558;28;20646;-71
2024/02/18 02:18:00;;;;;;;8.77;6.63;;;21.10;56.30;;;;;;5055446;28;20649;-71
2024/02/18 02:20:27;;;;;;;7.30;5.50;;;21.10;56.30;;;;;;5054962;28;20229;-72
2024/02/18 02:22:52;;;;;;;8.23;6.30;;;21.10;56.40;;;;;;5055221;28;20618;-72
2024/02/18 02:25:18;;;;;;;10.43;7.30;;;21.10;56.30;;;;;;5054962;28;20444;-69
2024/02/18 02:27:48;;;;;;;8.57;5.93;;;21.10;56.30;;;;;;5053564;28;20264;-71
2024/02/18 02:30:14;;;;;;;7.30;5.70;;;21.10;56.30;;;;;;5054923;28;20241;-71
2024/02/18 02:32:40;;;;;;;7.93;5.37;;;21.10;56.30;;;;;;5054908;28;20430;-69
2024/02/18 02:35:06;;;;;;;8.10;5.27;;;21.10;56.30;;;;;;5055068;28;20278;-70
2024/02/18 02:37:33;;;;;;;8.43;5.43;;;21.10;56.30;;;;;;5054481;28;20258;-69
2024/02/18 02:39:59;;;;;;;8.13;5.50;;;21.10;56.30;;;;;;5054759;28;20502;-68
2024/02/18 02:42:24;;;;;;;6.07;5.47;;;21.10;56.30;;;;;;5054684;28;20546;-69
2024/02/18 02:44:50;;;;;;;6.90;5.50;;;21.10;56.30;;;;;;5054998;28;20626;-68
2024/02/18 02:47:15;;;;;;;8.17;5.57;;;21.10;56.30;;;;;;5054793;28;20301;-70
2024/02/18 02:49:41;;;;;;;7.70;4.97;;;21.10;56.30;;;;;;5054980;28;20182;-71
2024/02/18 02:52:07;;;;;;;6.43;5.27;;;21.10;56.30;;;;;;5054831;28;20224;-70
2024/02/18 02:54:32;;;;;;;6.50;5.47;;;21.10;56.40;;;;;;5053500;28;20171;-70
2024/02/18 02:56:58;;;;;;;7.90;6.10;;;21.10;56.40;;;;;;5053197;28;20171;-70
2024/02/18 02:59:24;;;;;;;6.70;6.00;;;21.10;56.30;;;;;;5054895;28;20198;-70
2024/02/18 03:01:49;;;;;;;7.90;5.63;;;21.10;56.30;;;;;;5054484;28;20704;-70
2024/02/18 03:04:15;;;;;;;9.30;5.77;;;21.10;56.30;;;;;;5054637;28;21078;-70
2024/02/18 03:06:40;;;;;;;7.77;5.00;;;21.10;56.30;;;;;;5054568;28;20224;-70
2024/02/18 03:09:07;;;;;;;8.63;5.67;;;21.10;56.30;;;;;;5054763;28;20179;-70
2024/02/18 03:11:33;;;;;;;6.50;4.93;;;21.10;56.30;;;;;;5052683;28;20206;-70
2024/02/18 03:13:58;;;;;;;6.70;5.80;;;21.10;56.30;;;;;;5054587;28;20406;-71
2024/02/18 03:16:24;;;;;;;7.80;5.83;;;21.10;56.30;;;;;;5054397;28;20171;-70
2024/02/18 03:18:49;;;;;;;9.77;6.37;;;21.10;56.30;;;;;;5053987;28;20201;-71
2024/02/18 03:21:15;;;;;;;6.50;5.30;;;21.10;56.30;;;;;;5055237;28;20879;-71
2024/02/18 03:23:42;;;;;;;9.63;6.00;;;21.10;56.30;;;;;;5055070;28;20202;-70
2024/02/18 03:26:08;;;;;;;6.40;4.40;;;21.10;56.30;;;;;;5053945;28;20174;-70
2024/02/18 03:28:34;;;;;;;5.83;4.67;;;21.10;56.30;;;;;;5054022;28;20448;-70
2024/02/18 03:31:00;;;;;;;6.87;5.50;;;21.10;56.30;;;;;;5054192;28;20209;-71
2024/02/18 03:33:26;;;;;;;6.67;4.43;;;21.10;56.30;;;;;;5054061;28;20944;-70
2024/02/18 03:35:51;;;;;;;8.60;6.70;;;21.10;56.30;;;;;;5054042;28;20406;-71
2024/02/18 03:38:17;;;;;;;7.03;4.70;;;21.10;56.30;;;;;;5054105;28;20182;-70
2024/02/18 03:40:42;;;;;;;7.33;5.30;;;21.10;56.30;;;;;;5053935;28;20642;-70
2024/02/18 03:43:08;;;;;;;6.57;5.17;;;21.10;56.30;;;;;;5053867;28;20214;-71
2024/02/18 03:45:35;;;;;;;7.70;4.63;;;21.10;56.30;;;;;;5053962;28;20198;-68
2024/02/18 03:48:00;;;;;;;6.57;4.70;;;21.10;56.30;;;;;;5053253;28;20244;-70
2024/02/18 03:50:26;;;;;;;6.20;4.70;;;21.10;56.30;;;;;;5053308;28;20504;-70
2024/02/18 03:52:52;;;;;;;6.97;4.90;;;21.10;56.30;;;;;;5054099;28;20758;-70
2024/02/18 03:55:18;;;;;;;6.50;4.27;;;21.10;56.30;;;;;;5053780;28;20405;-70
2024/02/18 03:57:43;;;;;;;8.13;5.33;;;21.10;56.30;;;;;;5053701;28;20183;-70
2024/02/18 04:00:11;;;;;;;5.97;4.87;;;21.10;56.30;;;;;;5053830;28;20186;-70
2024/02/18 04:02:38;;;;;;;6.80;4.53;;;21.10;56.30;;;;;;5053737;28;20238;-70
2024/02/18 04:05:09;;;;;;;6.50;5.30;;;21.10;56.30;;;;;;5053439;28;20409;-70
2024/02/18 04:07:35;;;;;;;5.97;5.00;;;21.10;56.30;;;;;;5053404;28;20488;-70
2024/02/18 04:10:02;;;;;;;6.90;4.87;;;21.10;56.30;;;;;;5053744;28;20417;-71
2024/02/18 04:12:28;;;;;;;7.20;5.40;;;21.10;56.30;;;;;;5053547;28;20444;-70
2024/02/18 04:14:53;;;;;;;8.47;6.10;;;21.10;56.30;;;;;;5053848;28;20398;-70
2024/02/18 04:17:19;;;;;;;8.20;5.40;;;21.10;56.30;;;;;;5054242;28;20210;-70
2024/02/18 04:19:44;;;;;;;7.70;5.43;;;21.10;56.30;;;;;;5053803;28;20795;-70
2024/02/18 04:22:12;;;;;;;6.37;4.80;;;21.10;56.30;;;;;;5053822;28;20877;-70
2024/02/18 04:24:39;;;;;;;7.27;5.37;;;21.10;56.30;;;;;;5053462;28;20171;-71
2024/02/18 04:27:07;;;;;;;8.20;5.90;;;21.10;56.30;;;;;;5053329;28;20488;-70
2024/02/18 04:29:32;;;;;;;5.27;4.43;;;21.10;56.30;;;;;;5053417;28;20414;-70
2024/02/18 04:31:58;;;;;;;8.13;5.60;;;21.10;56.30;;;;;;5053432;28;20440;-70
2024/02/18 04:34:24;;;;;;;6.57;5.30;;;21.10;56.30;;;;;;5053489;28;20171;-69
2024/02/18 04:36:49;;;;;;;6.83;5.10;;;21.10;56.30;;;;;;5053234;28;20167;-70
2024/02/18 04:39:16;;;;;;;7.60;4.53;;;21.00;56.20;;;;;;5053309;28;20582;-71
2024/02/18 04:41:41;;;;;;;6.70;4.50;;;21.10;56.30;;;;;;5053517;28;20214;-70
2024/02/18 04:44:07;;;;;;;5.80;4.60;;;21.00;56.30;;;;;;5053033;28;20413;-70
2024/02/18 04:46:32;;;;;;;7.00;5.17;;;21.00;56.20;;;;;;5053158;28;20163;-71
2024/02/18 04:48:58;;;;;;;5.70;4.17;;;21.10;56.30;;;;;;5053663;28;20241;-70
2024/02/18 04:51:24;;;;;;;5.90;4.30;;;21.00;56.30;;;;;;5053239;28;20923;-71
2024/02/18 04:53:49;;;;;;;8.90;5.27;;;21.10;56.30;;;;;;5051625;28;20180;-71
2024/02/18 04:56:15;;;;;;;6.37;5.17;;;21.00;56.20;;;;;;5051954;28;20253;-71
2024/02/18 04:58:40;;;;;;;6.60;4.80;;;21.00;56.20;;;;;;5051594;28;20186;-71
2024/02/18 05:01:09;;;;;;;6.33;4.83;;;21.00;56.20;;;;;;5056830;28;20656;-71
2024/02/18 05:03:35;;;;;;;5.70;4.70;;;21.00;56.20;;;;;;5055072;28;20183;-71
2024/02/18 05:06:00;;;;;;;5.07;4.30;;;21.00;56.20;;;;;;5056900;28;20420;-70
2024/02/18 05:08:26;;;;;;;5.50;4.93;;;21.00;56.20;;;;;;5055597;28;20217;-70
2024/02/18 05:10:52;;;;;;;4.93;4.10;;;21.00;56.20;;;;;;5056509;28;20218;-70
2024/02/18 05:13:17;;;;;;;6.97;4.67;;;21.00;56.20;;;;;;5055473;28;20190;-71
2024/02/18 05:15:46;;;;;;;4.63;4.17;;;21.00;56.20;;;;;;5054793;28;20171;-71
2024/02/18 05:18:11;;;;;;;6.00;4.40;;;21.00;56.20;;;;;;5056588;28;20167;-72
2024/02/18 05:20:37;;;;;;;4.43;4.00;;;21.00;56.20;;;;;;5056463;28;20401;-71
2024/02/18 05:23:03;;;;;;;5.90;4.50;;;21.00;56.20;;;;;;5056530;28;20186;-71
2024/02/18 05:25:29;;;;;;;5.80;4.77;;;21.00;56.20;;;;;;5056400;28;20616;-71
2024/02/18 05:27:54;;;;;;;6.20;4.77;;;21.00;56.20;;;;;;5056029;28;21098;-71
2024/02/18 05:30:20;;;;;;;6.60;4.53;;;21.00;56.20;;;;;;5056481;28;20284;-71
2024/02/18 05:32:45;;;;;;;5.97;4.43;;;21.00;56.20;;;;;;5055048;28;20198;-71
2024/02/18 05:35:11;;;;;;;7.83;4.07;;;21.00;56.20;;;;;;5056233;28;20190;-71
2024/02/18 05:37:37;;;;;;;5.83;4.70;;;21.00;56.20;;;;;;5056435;28;20178;-71
2024/02/18 05:40:04;;;;;;;6.63;4.30;;;21.00;56.20;;;;;;5055974;28;20186;-70
2024/02/18 05:42:29;;;;;;;7.17;4.40;;;21.00;56.20;;;;;;5056111;28;20191;-71
2024/02/18 05:44:55;;;;;;;4.90;4.37;;;21.00;56.20;;;;;;5056445;28;21313;-71
2024/02/18 05:47:20;;;;;;;5.17;4.50;;;21.00;56.20;;;;;;5055893;28;20206;-70
2024/02/18 05:49:46;;;;;;;7.50;5.73;;;21.00;56.20;;;;;;5054470;28;20317;-70
2024/02/18 05:52:12;;;;;;;4.87;3.87;;;21.00;56.20;;;;;;5055751;28;20203;-71
2024/02/18 05:54:37;;;;;;;4.90;4.40;;;21.00;56.20;;;;;;5056184;28;20175;-72
2024/02/18 05:57:05;;;;;;;5.17;4.63;;;21.00;56.20;;;;;;5056128;28;20179;-71
2024/02/18 05:59:31;;;;;;;5.07;4.47;;;21.00;56.20;;;;;;5056090;28;20201;-71
2024/02/18 06:01:56;;;;;;;6.07;4.43;;;21.00;56.20;;;;;;5056032;28;20512;-70
2024/02/18 06:04:22;;;;;;;6.00;4.07;;;21.00;56.20;;;;;;5055607;28;20201;-71
2024/02/18 06:06:48;;;;;;;5.23;4.63;;;21.00;56.30;;;;;;5055301;28;20896;-71
2024/02/18 06:09:13;;;;;;;5.23;4.07;;;21.00;56.20;;;;;;5056223;28;20253;-70
2024/02/18 06:11:39;;;;;;;6.10;4.83;;;21.00;56.20;;;;;;5054585;28;20196;-71
2024/02/18 06:14:04;;;;;;;7.07;4.57;;;21.00;56.20;;;;;;5055961;28;20200;-71
2024/02/18 06:16:30;;;;;;;5.10;4.20;;;21.00;56.30;;;;;;5056118;28;20175;-69
2024/02/18 06:18:56;;;;;;;6.50;4.77;;;21.00;56.30;;;;;;5055451;28;20278;-71
2024/02/18 06:21:22;;;;;;;5.57;4.33;;;21.00;56.30;;;;;;5055531;28;20175;-71
2024/02/18 06:23:48;;;;;;;5.67;4.50;;;21.00;56.30;;;;;;5054094;28;20182;-71
2024/02/18 06:26:15;;;;;;;5.60;4.70;;;21.00;56.30;;;;;;5055610;28;20477;-70
2024/02/18 06:28:41;;;;;;;5.17;4.23;;;21.00;56.30;;;;;;5055630;28;21146;-71
2024/02/18 06:31:06;;;;;;;7.33;4.10;;;21.00;56.30;;;;;;5055897;28;20445;-71
2024/02/18 06:33:32;;;;;;;5.00;3.77;;;21.10;56.40;;;;;;5055529;28;20448;-70
2024/02/18 06:35:58;;;;;;;4.97;4.00;;;21.00;56.40;;;;;;5055874;28;20539;-71
2024/02/18 06:38:23;;;;;;;5.73;4.30;;;21.10;56.40;;;;;;5054186;28;20190;-71
2024/02/18 06:40:49;;;;;;;6.37;4.80;;;21.10;56.40;;;;;;5055302;28;20182;-71
2024/02/18 06:43:14;;;;;;;3.93;3.53;;;21.10;56.40;;;;;;5055035;28;20194;-71
2024/02/18 06:45:40;;;;;;;4.47;3.90;;;21.10;56.40;;;;;;5055394;28;20224;-70
2024/02/18 06:48:06;;;;;;;4.87;4.40;;;21.10;56.40;;;;;;5055198;28;20202;-71
2024/02/18 06:50:31;;;;;;;6.47;4.93;;;21.10;56.40;;;;;;5055053;28;20581;-71
2024/02/18 06:52:57;;;;;;;4.50;4.10;;;21.10;56.40;;;;;;5055316;28;20194;-70
2024/02/18 06:55:22;;;;;;;4.90;3.93;;;21.10;56.40;;;;;;5055425;28;20224;-71
2024/02/18 06:57:48;;;;;;;5.87;4.63;;;21.10;56.40;;;;;;5053637;28;20187;-71
2024/02/18 07:00:14;;;;;;;7.07;4.13;;;21.10;56.30;;;;;;5055044;28;20663;-72
2024/02/18 07:02:41;;;;;;;8.67;4.80;;;21.10;56.30;;;;;;5055244;28;20203;-71
2024/02/18 07:05:07;;;;;;;4.07;3.67;;;21.10;56.40;;;;;;5054944;28;20249;-71
2024/02/18 07:07:32;;;;;;;4.93;4.10;;;21.10;56.90;;;;;;5054541;28;20504;-71
2024/02/18 07:09:58;;;;;;;5.50;4.47;;;21.10;56.40;;;;;;5054925;28;20443;-70
2024/02/18 07:12:23;;;;;;;5.07;3.60;;;21.10;56.30;;;;;;5054552;28;20217;-71
2024/02/18 07:14:49;;;;;;;5.27;4.73;;;21.10;56.30;;;;;;5055196;28;20171;-70
2024/02/18 07:17:19;;;;;;;5.80;4.20;;;21.10;56.30;;;;;;5055231;28;20174;-71
2024/02/18 07:19:46;;;;;;;5.50;4.40;;;21.20;56.40;;;;;;5054959;28;20616;-71
2024/02/18 07:22:13;;;;;;;5.10;4.47;;;21.10;56.30;;;;;;5054032;28;20440;-70
2024/02/18 07:24:40;;;;;;;5.87;3.73;;;21.10;56.30;;;;;;5053785;28;20432;-69
2024/02/18 07:27:05;;;;;;;5.43;3.90;;;21.10;56.30;;;;;;5051503;28;20406;-69
2024/02/18 07:29:31;;;;;;;5.20;3.90;;;21.10;56.30;;;;;;5051131;28;21319;-68
2024/02/18 07:31:57;;;;;;;5.70;4.53;;;21.10;56.30;;;;;;5052093;28;20237;-70
2024/02/18 07:34:22;;;;;;;5.40;3.80;;;21.10;56.30;;;;;;5055534;28;20179;-71
2024/02/18 07:36:48;;;;;;;4.77;3.87;;;21.10;56.30;;;;;;5053088;28;20181;-72
2024/02/18 07:39:14;;;;;;;4.63;3.80;;;21.20;56.50;;;;;;5053199;28;20202;-73
2024/02/18 07:41:39;;;;;;;4.60;3.53;;;21.20;56.50;;;;;;5051858;28;20763;-71
2024/02/18 07:44:05;;;;;;;4.70;3.63;;;21.10;56.30;;;;;;5053142;28;20238;-72
2024/02/18 07:46:31;;;;;;;6.90;4.37;;;21.20;56.50;;;;;;5053072;28;20179;-73
2024/02/18 07:48:56;;;;;;;6.40;4.87;;;21.20;56.50;;;;;;5052302;28;20203;-74
2024/02/18 07:51:22;;;;;;;4.53;4.13;;;21.20;56.50;;;;;;5053832;28;20179;-69
2024/02/18 07:53:48;;;;;;;5.70;4.20;;;21.20;56.50;;;;;;5053101;28;20278;-72
2024/02/18 07:56:14;;;;;;;5.13;4.27;;;21.20;56.50;;;;;;5050709;28;20193;-70
2024/02/18 07:58:40;;;;;;;5.00;4.23;;;21.20;56.50;;;;;;5051114;28;20619;-70
2024/02/18 08:01:05;;;;;;;4.43;3.73;;;21.20;56.50;;;;;;5050274;28;20409;-73
2024/02/18 08:03:31;;;;;;;5.27;4.17;;;21.20;56.50;;;;;;5054968;28;20199;-75
2024/02/18 08:05:57;;;;;;;4.43;4.00;;;21.20;56.50;;;;;;5036651;28;20179;-74
2024/02/18 08:08:22;;;;;;;5.93;4.27;;;21.20;56.50;;;;;;5049503;28;20626;-70
2024/02/18 08:10:48;;;;;;;6.10;4.00;;;21.20;56.50;;;;;;5054737;28;20198;-70
2024/02/18 08:13:14;;;;;;;4.50;3.80;;;21.20;56.50;;;;;;5056339;28;20732;-70
2024/02/18 08:15:39;;;;;;;4.70;4.20;;;21.20;56.60;;;;;;5050194;28;20952;-68
2024/02/18 08:18:05;;;;;;;4.43;3.40;;;21.20;56.50;;;;;;5051894;28;20653;-69
2024/02/18 08:20:31;;;;;;;6.00;4.03;;;21.20;56.60;;;;;;5049974;28;20209;-70
2024/02/18 08:22:56;;;;;;;6.83;4.03;;;21.20;56.50;;;;;;5033115;28;20257;-69
2024/02/18 08:25:22;;;;;;;5.53;4.20;;;21.20;56.50;;;;;;5049240;28;20202;-67
2024/02/18 08:27:48;;;;;;;7.23;4.03;;;21.20;56.50;;;;;;5050570;28;20281;-70
2024/02/18 08:30:14;;;;;;;5.90;4.03;;;21.20;56.50;;;;;;5053409;28;20708;-70
2024/02/18 08:32:39;;;;;;;5.93;4.43;;;21.30;56.50;;;;;;5052431;28;20198;-70
2024/02/18 08:35:06;;;;;;;4.13;3.37;;;21.30;56.50;;;;;;5052652;28;20795;-69
2024/02/18 08:37:31;;;;;;;3.97;3.43;;;21.30;56.50;;;;;;5054895;28;20178;-69
2024/02/18 08:39:57;;;;;;;6.87;3.87;;;21.30;56.40;;;;;;5053172;28;21030;-70
2024/02/18 08:42:23;;;;;;;5.07;3.90;;;21.30;56.40;;;;;;5053299;28;20203;-69
2024/02/18 08:44:48;;;;;;;5.33;3.63;;;21.30;56.50;;;;;;5020358;28;20799;-69
2024/02/18 08:47:14;;;;;;;5.20;3.70;;;21.30;56.50;;;;;;5055514;28;20198;-69
2024/02/18 08:49:43;;;;;;;4.90;4.00;;;21.30;56.50;;;;;;5055718;28;20194;-69
2024/02/18 08:52:09;;;;;;;5.20;3.90;;;21.30;56.50;;;;;;5055106;28;20199;-69
2024/02/18 08:54:34;;;;;;;6.80;4.30;;;21.30;56.50;;;;;;5054128;28;20432;-69
2024/02/18 08:57:00;;;;;;;4.87;3.57;;;21.30;56.50;;;;;;5054490;28;20216;-69
2024/02/18 08:59:26;;;;;;;3.83;2.97;;;21.30;56.50;;;;;;5054454;28;20179;-69
2024/02/18 09:02:00;;;;;;;5.57;3.70;;;21.30;56.50;;;;;;5054196;28;20431;-70
2024/02/18 09:04:25;;;;;;;4.33;3.77;;;21.30;56.50;;;;;;5055056;28;20561;-69
2024/02/18 09:06:51;;;;;;;3.80;3.43;;;21.30;56.60;;;;;;5054469;28;20402;-70
2024/02/18 09:09:18;;;;;;;6.30;4.00;;;21.30;57.10;;;;;;5054724;28;20688;-69
2024/02/18 09:11:44;;;;;;;4.20;3.33;;;21.30;56.60;;;;;;5054072;28;20491;-69
2024/02/18 09:14:10;;;;;;;5.60;3.90;;;21.30;56.60;;;;;;5054153;28;20409;-70
2024/02/18 09:16:36;;;;;;;4.67;3.40;;;21.30;56.60;;;;;;5054237;28;20186;-68
2024/02/18 09:19:01;;;;;;;4.27;3.40;;;21.30;56.60;;;;;;5053875;28;20441;-69
2024/02/18 09:21:27;;;;;;;6.20;4.17;;;21.30;56.70;;;;;;5053693;28;20172;-70
2024/02/18 09:23:53;;;;;;;4.50;3.97;;;21.30;56.70;;;;;;5053982;28;20178;-70
2024/02/18 09:26:19;;;;;;;3.93;3.57;;;21.30;56.70;;;;;;5053742;28;20183;-69
2024/02/18 09:28:45;;;;;;;4.67;3.50;;;21.30;56.70;;;;;;5053613;28;20202;-69
2024/02/18 09:31:11;;;;;;;4.40;3.40;;;21.30;56.70;;;;;;5053458;28;20418;-70
2024/02/18 09:33:38;;;;;;;3.90;3.50;;;21.30;56.70;;;;;;5053641;28;20178;-69
2024/02/18 09:36:04;;;;;;;4.17;3.30;;;21.30;56.60;;;;;;5053856;28;20175;-69
2024/02/18 09:38:30;;;;;;;4.37;3.93;;;21.30;56.70;;;;;;5052521;28;20491;-69
2024/02/18 09:40:55;;;;;;;5.20;3.97;;;21.30;56.70;;;;;;5053907;28;20522;-69
2024/02/18 09:43:24;;;;;;;6.30;3.60;;;21.30;56.70;;;;;;5053537;28;20440;-69
2024/02/18 09:45:52;;;;;;;3.30;2.97;;;21.30;56.70;;;;;;5052467;28;20175;-69
2024/02/18 09:48:20;;;;;;;4.03;3.63;;;21.30;56.70;;;;;;5053184;28;20461;-69
2024/02/18 09:50:49;;;;;;;4.70;3.00;;;21.30;56.70;;;;;;5053977;28;20934;-69
2024/02/18 09:53:16;;;;;;;6.10;3.80;;;21.30;56.70;;;;;;5053871;28;20429;-70
2024/02/18 09:55:44;;;;;;;4.93;3.60;;;21.40;56.80;;;;;;5053455;28;20898;-69
2024/02/18 09:58:10;;;;;;;4.10;3.50;;;21.30;56.70;;;;;;5053689;28;20405;-69
2024/02/18 10:00:38;;;;;;;4.43;3.70;;;21.30;56.70;;;;;;5053183;28;20413;-70
2024/02/18 10:03:04;;;;;;;3.87;3.53;;;21.30;56.70;;;;;;5053268;28;20440;-70
2024/02/18 10:05:32;;;;;;;3.93;3.53;;;21.30;56.70;;;;;;5053391;28;20801;-70
2024/02/18 10:08:02;;;;;;;5.10;3.40;;;21.40;56.80;;;;;;5052982;28;20199;-70
2024/02/18 10:10:34;;;;;;;4.17;2.87;;;21.40;56.80;;;;;;5052056;28;20813;-70
2024/02/18 10:13:04;;;;;;;6.23;4.10;;;21.40;56.80;;;;;;5053679;28;20419;-71
2024/02/18 10:15:31;;;;;;;4.10;3.70;;;21.40;56.80;;;;;;5053288;28;20409;-69
2024/02/18 10:17:57;;;;;;;3.83;3.53;;;21.40;56.80;;;;;;5053308;28;20410;-70
2024/02/18 10:20:26;;;;;;;4.77;3.50;;;21.40;56.80;;;;;;5053661;28;20410;-69
2024/02/18 10:22:51;;;;;;;4.70;3.20;;;21.40;56.80;;;;;;5053091;28;20512;-70
2024/02/18 10:25:18;;;;;;;4.87;3.40;;;21.40;56.80;;;;;;5053506;28;20502;-70
2024/02/18 10:27:44;;;;;;;3.97;3.53;;;21.30;56.70;;;;;;5053177;28;20206;-69
2024/02/18 10:30:11;;;;;;;4.63;3.33;;;21.40;56.80;;;;;;5053700;28;20428;-69
2024/02/18 10:32:37;;;;;;;5.13;3.10;;;21.40;56.80;;;;;;5053269;28;20198;-69
2024/02/18 10:35:05;;;;;;;5.33;3.93;;;21.40;56.80;;;;;;5053606;28;20405;-70
2024/02/18 10:37:36;;;;;;;4.47;3.60;;;21.40;56.80;;;;;;5053184;28;20171;-69
2024/02/18 10:40:42;;;;;;;4.67;3.67;;;21.40;56.80;;;;;;5053416;28;20928;-68
2024/02/18 10:43:11;;;;;;;3.80;3.10;;;21.40;56.80;;;;;;5053339;28;20527;-69
2024/02/18 10:45:40;;;;;;;5.13;4.07;;;21.40;56.80;;;;;;5053315;28;20409;-68
2024/02/18 10:48:08;;;;;;;4.03;3.37;;;21.40;56.90;;;;;;5053236;28;20463;-69
2024/02/18 10:50:40;;;;;;;6.50;3.20;;;21.40;56.80;;;;;;5054519;28;20979;-69
2024/02/18 10:53:26;;;;;;;4.57;3.37;;;21.40;56.80;;;;;;5064562;28;20436;-71
2024/02/18 10:56:06;;;;;;;8.03;3.33;;;21.40;56.80;;;;;;5072572;28;20409;-69
2024/02/18 10:58:53;;;;;;;3.47;3.10;;;21.40;56.90;;;;;;5039570;28;20413;-68
2024/02/18 11:01:22;;;;;;;3.33;3.03;;;21.40;56.90;;;;;;5032967;28;20406;-69
2024/02/18 11:03:55;;;;;;;4.10;3.10;;;21.40;56.90;;;;;;5032639;28;20794;-70
2024/02/18 11:06:21;;;;;;;4.63;3.30;;;21.40;57.40;;;;;;5032941;28;20395;-69
2024/02/18 11:08:48;;;;;;;3.77;3.20;;;21.30;56.80;;;;;;5032204;28;20458;-69
2024/02/18 11:11:15;;;;;;;4.50;3.10;;;21.40;56.90;;;;;;5031951;28;20457;-69
2024/02/18 11:13:42;;;;;;;3.40;3.10;;;21.40;56.90;;;;;;5032423;28;20467;-69
2024/02/18 11:16:09;;;;;;;4.00;3.47;;;21.40;56.90;;;;;;5032817;28;20762;-70
2024/02/18 11:18:36;;;;;;;3.13;2.73;;;21.40;56.90;;;;;;5032508;28;20538;-69
2024/02/18 11:21:03;;;;;;;6.17;3.60;;;21.40;56.90;;;;;;5032349;28;20414;-69
2024/02/18 11:23:32;;;;;;;4.80;3.70;;;21.40;56.90;;;;;;5032687;28;20431;-69
2024/02/18 11:25:58;;;;;;;5.17;3.37;;;21.40;56.90;;;;;;5032049;28;20492;-68
2024/02/18 11:28:24;;;;;;;4.27;3.20;;;21.40;56.90;;;;;;5032127;28;20453;-70
2024/02/18 11:30:50;;;;;;;5.10;3.07;;;21.40;56.90;;;;;;5032218;28;20905;-70
2024/02/18 11:33:17;;;;;;;6.10;4.00;;;21.40;56.90;;;;;;5032061;28;20187;-68
2024/02/18 11:35:43;;;;;;;4.87;4.20;;;21.40;56.80;;;;;;5032124;28;20941;-69
2024/02/18 11:38:08;;;;;;;6.43;3.87;;;21.40;56.80;;;;;;5030630;28;20426;-68
2024/02/18 11:40:47;;;;;;;4.60;3.20;;;21.40;56.80;;;;;;5031914;28;20266;-68
2024/02/18 11:43:13;;;;;;;4.60;3.20;;;21.40;56.80;;;;;;5031847;28;20187;-69
2024/02/18 11:45:49;;;;;;;4.47;3.67;;;21.40;56.80;;;;;;5032135;28;20406;-70
2024/02/18 11:48:15;;;;;;;5.63;3.87;;;21.40;56.80;;;;;;5030218;28;20461;-69
2024/02/18 11:50:40;;;;;;;3.93;3.47;;;21.40;56.80;;;;;;5031951;28;20778;-69
2024/02/18 11:53:07;;;;;;;5.03;3.00;;;21.40;56.90;;;;;;5031943;28;20314;-70
2024/02/18 11:55:33;;;;;;;3.80;3.30;;;21.40;56.90;;;;;;5031917;28;20207;-70
2024/02/18 11:57:59;;;;;;;4.40;3.73;;;21.40;56.90;;;;;;5030018;28;20415;-69
2024/02/18 12:00:25;;;;;;;6.67;5.63;;;21.40;56.90;;;;;;5032071;28;20453;-69
2024/02/18 12:02:52;;;;;;;9.80;6.43;;;21.40;56.90;;;;;;5031695;28;20438;-71
2024/02/18 12:05:20;;;;;;;8.90;8.03;;;21.40;57.00;;;;;;5031721;28;20434;-69
2024/02/18 12:07:49;;;;;;;17.53;14.70;;;21.40;57.00;;;;;;5031559;28;20450;-69
2024/02/18 12:10:15;;;;;;;14.27;12.77;;;21.40;57.00;;;;;;5034749;28;20430;-69
2024/02/18 12:12:41;;;;;;;20.23;18.33;;;21.50;57.10;;;;;;5036017;28;20430;-70
2024/02/18 12:15:07;;;;;;;18.03;16.13;;;21.40;57.00;;;;;;5035669;28;20999;-70
2024/02/18 12:17:33;;;;;;;21.30;19.13;;;21.50;57.20;;;;;;5035750;28;20313;-69
2024/02/18 12:19:59;;;;;;;21.30;19.10;;;21.50;57.20;;;;;;5035787;28;20442;-69
2024/02/18 12:22:28;;;;;;;21.47;18.97;;;21.50;57.30;;;;;;5035326;28;20441;-69
2024/02/18 12:24:56;;;;;;;20.47;18.53;;;21.50;57.40;;;;;;5047301;28;20216;-69
2024/02/18 12:27:22;;;;;;;24.97;21.20;;;21.50;57.30;;;;;;5073902;28;20478;-69
2024/02/18 12:29:53;;;;;;;38.23;26.67;;;21.50;57.40;;;;;;5075129;28;20403;-69
2024/02/18 12:32:19;;;;;;;30.67;24.67;;;21.50;57.40;;;;;;5075145;28;20940;-69
2024/02/18 12:34:47;;;;;;;59.53;37.33;;;21.50;57.50;;;;;;5075304;28;20412;-70
2024/02/18 12:37:13;;;;;;;58.07;36.63;;;21.50;57.50;;;;;;5075062;28;20457;-68
2024/02/18 12:39:39;;;;;;;89.77;48.93;;;21.50;57.50;;;;;;5073782;28;20923;-69
2024/02/18 12:42:05;;;;;;;68.17;42.00;;;21.50;57.60;;;;;;5075414;28;20202;-70